createdAt,value
2017-12-30T07:22:16.560Z,12.15
2017-12-30T07:24:44.325Z,7.75
2017-12-30T07:27:11.917Z,6.85
2017-12-30T07:32:24.964Z,4.00
2017-12-30T07:34:54.312Z,18.85
2017-12-30T07:37:22.233Z,4.20
2017-12-30T07:39:51.362Z,6.40
2017-12-30T07:42:20.941Z,8.27
2017-12-30T07:44:52.780Z,6.70
2017-12-30T07:47:21.379Z,7.20
2017-12-30T07:49:50.068Z,28.08
2017-12-30T07:54:53.842Z,6.83
2017-12-30T08:03:37.356Z,8.88
2017-12-30T08:11:56.611Z,6.53
2017-12-30T08:17:13.767Z,12.37
2017-12-30T08:25:15.444Z,5.90
2017-12-30T08:27:45.140Z,2.00
2017-12-30T08:30:15.957Z,2.03
2017-12-30T08:32:45.674Z,10.05
2017-12-30T08:35:15.185Z,3.95
2017-12-30T08:38:05.298Z,6.18
2017-12-30T08:48:44.533Z,6.55
2017-12-30T08:51:13.397Z,4.40
2017-12-30T08:56:33.873Z,1.20
2017-12-30T09:00:06.448Z,3.20
2017-12-30T09:08:32.954Z,8.48
2017-12-30T09:49:18.816Z,2.03
2017-12-30T09:51:52.617Z,0.75
2017-12-30T09:54:22.212Z,2.25
2017-12-30T09:56:55.247Z,0.70
2017-12-30T09:59:27.926Z,0.70
2017-12-30T10:01:55.892Z,1.17
2017-12-30T10:04:24.318Z,4.45
2017-12-30T10:06:57.215Z,1.20
2017-12-30T10:10:00.221Z,4.10
2017-12-30T10:12:29.010Z,0.95
2017-12-30T10:17:48.820Z,0.77
2017-12-30T10:21:04.114Z,0.85
2017-12-30T10:23:54.599Z,2.78
2017-12-30T10:26:45.240Z,2.05
2017-12-30T10:29:16.415Z,1.87
2017-12-30T10:31:45.009Z,1.20
2017-12-30T10:34:12.891Z,1.12
2017-12-30T10:36:40.735Z,0.82
2017-12-30T10:39:08.427Z,1.95
2017-12-30T10:41:37.077Z,2.20
2017-12-30T10:44:06.860Z,1.40
2017-12-30T10:46:34.934Z,1.45
2017-12-30T10:49:02.996Z,2.20
2017-12-30T10:51:32.741Z,2.40
2017-12-30T10:54:01.436Z,22.73
2017-12-30T10:56:29.167Z,2.78
2017-12-30T10:58:57.065Z,3.10
2017-12-30T11:01:26.092Z,3.37
2017-12-30T11:04:00.673Z,3.78
2017-12-30T11:06:28.498Z,12.00
2017-12-30T11:08:56.373Z,8.82
2017-12-30T11:11:24.348Z,10.45
2017-12-30T11:13:52.245Z,10.23
2017-12-30T11:16:20.258Z,11.68
2017-12-30T11:18:48.156Z,13.62
2017-12-30T11:21:16.622Z,10.52
2017-12-30T11:23:44.874Z,28.23
2017-12-30T11:28:54.228Z,18.98
2017-12-30T11:31:25.066Z,22.05
2017-12-30T13:18:41.449Z,38.20
2017-12-30T13:44:23.148Z,71.40
2017-12-30T13:58:46.588Z,38.57
2017-12-30T14:01:14.763Z,33.80
2017-12-30T14:03:46.623Z,37.00
2017-12-30T14:06:21.623Z,34.20
2017-12-30T15:31:19.036Z,22.73
2017-12-30T16:37:09.512Z,37.50
2017-12-30T16:39:39.349Z,40.70
2017-12-30T16:42:08.007Z,24.77
2017-12-30T16:44:56.723Z,36.00
2017-12-30T16:50:22.377Z,25.87
2017-12-30T16:52:59.074Z,42.60
2017-12-30T16:55:27.051Z,17.50
2017-12-30T16:58:00.609Z,19.03
2017-12-30T17:00:30.025Z,43.80
2017-12-30T17:05:54.240Z,37.90
2017-12-30T17:11:14.619Z,35.80
2017-12-30T17:13:42.171Z,29.87
2017-12-30T18:03:15.488Z,23.80
2017-12-30T18:08:41.280Z,24.20
2017-12-30T18:19:32.883Z,21.87
2017-12-30T18:26:12.864Z,28.52
2017-12-30T18:31:59.696Z,38.50
2017-12-30T18:40:39.077Z,36.03
2017-12-30T18:43:14.337Z,27.40
2017-12-30T18:45:48.992Z,23.17
2017-12-30T18:48:17.006Z,23.00
2017-12-30T18:53:43.580Z,42.70
2017-12-30T18:59:41.158Z,26.30
2017-12-30T19:02:15.531Z,25.57
2017-12-30T19:04:43.510Z,24.67
2017-12-30T19:07:19.090Z,25.60
2017-12-30T19:09:49.360Z,34.03
2017-12-30T19:12:18.698Z,31.83
2017-12-30T19:14:48.659Z,30.77
2017-12-30T19:17:18.634Z,19.50
2017-12-30T19:26:00.646Z,36.33
2017-12-30T19:28:44.340Z,29.00
2017-12-30T19:31:16.757Z,17.17
2017-12-30T19:33:46.255Z,26.20
2017-12-30T19:36:15.832Z,31.87
2017-12-30T19:38:53.489Z,29.27
2017-12-30T19:41:25.631Z,21.80
2017-12-30T19:44:07.383Z,20.80
2017-12-30T19:46:37.100Z,12.07
2017-12-30T19:49:30.677Z,27.27
2017-12-30T19:52:24.214Z,35.70
2017-12-30T19:54:52.613Z,22.67
2017-12-30T19:57:31.707Z,22.00
2017-12-30T20:00:11.532Z,55.50
2017-12-30T20:02:54.769Z,21.83
2017-12-30T20:05:23.262Z,29.30
2017-12-30T20:07:52.398Z,35.73
2017-12-30T20:10:26.559Z,34.77
2017-12-30T20:15:41.008Z,21.33
2017-12-30T20:18:15.126Z,31.83
2017-12-30T20:23:44.639Z,18.77
2017-12-30T20:26:22.656Z,27.87
2017-12-30T20:28:55.454Z,20.00
2017-12-30T20:31:41.232Z,14.93
2017-12-30T20:50:33.272Z,33.53
2017-12-30T20:55:54.527Z,50.17
2017-12-30T21:01:39.023Z,25.03
2017-12-30T21:12:47.507Z,26.33
2017-12-30T21:21:06.057Z,39.70
2017-12-30T21:37:28.211Z,21.67
2017-12-30T21:40:02.062Z,15.63
2017-12-30T21:46:29.810Z,30.90
2017-12-30T21:55:00.435Z,30.43
2017-12-30T21:57:30.098Z,36.57
2017-12-30T22:02:59.214Z,34.87
